Filskov, Denmark
Current Conditions -  °F | °C
As of 11:50 PM on Saturday 25 Oct 2014 (Local Time) from EKBI Reporting Station
Few Clouds Few Clouds  
Wind Chill: 46°   Ceiling: Unl
Heat Index: 48°   Visibility: 6mi
Dew Point: 48°   Wind: 6mph
Humidity: 100%   Direction: 180°S
Pressure: 30.03"   Gusts: NA
Location:  55.81°N, 9.02°E
Report Text: EKBI 252150Z AUTO 18005KT 9999NDV FEW049/// 09/09 Q1017
Loading
Personal Weather Stations






























Interactive Weather Map
Tropical Storm Tracking
New forecast layout! Learn more

10-Day Weather Forecast

Advertisements
Track Severe Weather on mobile